sensor_id;sensor_type;location;lat;lon;timestamp;pressure;altitude;pressure_sealevel;temperature;humidity
59767;BME280;46248;58.364;25.582;2023-04-28T00:02:41;100733.31;;;2.03;83.55
59767;BME280;46248;58.364;25.582;2023-04-28T00:06:03;100733.31;;;2.02;83.67
59767;BME280;46248;58.364;25.582;2023-04-28T00:09:25;100733.34;;;2.00;84.11
59767;BME280;46248;58.364;25.582;2023-04-28T00:12:48;100735.09;;;2.00;85.20
59767;BME280;46248;58.364;25.582;2023-04-28T00:16:10;100737.66;;;2.00;84.77
59767;BME280;46248;58.364;25.582;2023-04-28T00:19:32;100739.41;;;1.98;85.46
59767;BME280;46248;58.364;25.582;2023-04-28T00:22:54;100727.41;;;1.92;85.81
59767;BME280;46248;58.364;25.582;2023-04-28T00:26:16;100749.69;;;2.01;86.06
59767;BME280;46248;58.364;25.582;2023-04-28T00:29:39;100742.78;;;2.03;86.37
59767;BME280;46248;58.364;25.582;2023-04-28T00:33:01;100746.22;;;2.02;86.78
59767;BME280;46248;58.364;25.582;2023-04-28T00:36:23;100741.13;;;1.96;86.52
59767;BME280;46248;58.364;25.582;2023-04-28T00:39:45;100739.41;;;1.98;86.56
59767;BME280;46248;58.364;25.582;2023-04-28T00:43:07;100748.88;;;1.96;86.62
59767;BME280;46248;58.364;25.582;2023-04-28T00:46:32;100727.56;;;1.78;86.53
59767;BME280;46248;58.364;25.582;2023-04-28T00:49:54;100736.94;;;1.87;86.19
59767;BME280;46248;58.364;25.582;2023-04-28T00:53:16;100744.75;;;1.82;86.02
59767;BME280;46248;58.364;25.582;2023-04-28T00:56:38;100745.69;;;1.75;86.00
59767;BME280;46248;58.364;25.582;2023-04-28T01:00:00;100749.22;;;1.70;85.52
59767;BME280;46248;58.364;25.582;2023-04-28T01:03:25;100750.97;;;1.63;85.74
59767;BME280;46248;58.364;25.582;2023-04-28T01:06:47;100751.06;;;1.55;85.97
59767;BME280;46248;58.364;25.582;2023-04-28T01:10:10;100725.50;;;1.32;86.00
59767;BME280;46248;58.364;25.582;2023-04-28T01:13:32;100752.06;;;1.42;86.44
59767;BME280;46248;58.364;25.582;2023-04-28T01:16:54;100750.41;;;1.36;86.42
59767;BME280;46248;58.364;25.582;2023-04-28T01:20:18;100743.59;;;1.29;86.62
59767;BME280;46248;58.364;25.582;2023-04-28T01:23:40;100752.25;;;1.25;87.27
59767;BME280;46248;58.364;25.582;2023-04-28T01:27:03;100754.84;;;1.21;87.14
59767;BME280;46248;58.364;25.582;2023-04-28T01:30:25;100758.31;;;1.17;87.77
59767;BME280;46248;58.364;25.582;2023-04-28T01:33:47;100762.66;;;1.11;86.97
59767;BME280;46248;58.364;25.582;2023-04-28T01:37:09;100760.13;;;1.07;87.99
59767;BME280;46248;58.364;25.582;2023-04-28T01:40:31;100755.84;;;1.03;88.27
59767;BME280;46248;58.364;25.582;2023-04-28T01:43:54;100753.34;;;0.95;88.40
59767;BME280;46248;58.364;25.582;2023-04-28T01:47:16;100752.53;;;0.90;88.67
59767;BME280;46248;58.364;25.582;2023-04-28T01:50:39;100765.44;;;0.87;88.73
59767;BME280;46248;58.364;25.582;2023-04-28T01:54:00;100762.06;;;0.82;88.62
59767;BME280;46248;58.364;25.582;2023-04-28T01:57:22;100758.66;;;0.75;88.75
59767;BME280;46248;58.364;25.582;2023-04-28T02:00:46;100758.69;;;0.69;88.88
59767;BME280;46248;58.364;25.582;2023-04-28T02:04:08;100763.88;;;0.67;89.48
59767;BME280;46248;58.364;25.582;2023-04-28T02:07:30;100760.47;;;0.64;88.66
59767;BME280;46248;58.364;25.582;2023-04-28T02:10:52;100764.75;;;0.62;88.31
59767;BME280;46248;58.364;25.582;2023-04-28T02:14:14;100765.63;;;0.59;88.75
59767;BME280;46248;58.364;25.582;2023-04-28T02:17:38;100765.66;;;0.56;88.95
59767;BME280;46248;58.364;25.582;2023-04-28T02:21:07;100755.38;;;0.53;89.02
59767;BME280;46248;58.364;25.582;2023-04-28T02:24:30;100759.69;;;0.50;87.97
59767;BME280;46248;58.364;25.582;2023-04-28T02:27:54;100762.28;;;0.47;88.81
59767;BME280;46248;58.364;25.582;2023-04-28T02:31:17;100770.03;;;0.40;88.37
59767;BME280;46248;58.364;25.582;2023-04-28T02:34:40;100764.88;;;0.42;89.58
59767;BME280;46248;58.364;25.582;2023-04-28T02:38:02;100762.31;;;0.40;90.41
59767;BME280;46248;58.364;25.582;2023-04-28T02:41:24;100764.03;;;0.40;90.83
59767;BME280;46248;58.364;25.582;2023-04-28T02:44:46;100763.19;;;0.36;91.68
59767;BME280;46248;58.364;25.582;2023-04-28T02:48:08;100762.31;;;0.40;92.06
59767;BME280;46248;58.364;25.582;2023-04-28T02:51:31;100768.31;;;0.44;91.52
59767;BME280;46248;58.364;25.582;2023-04-28T02:54:53;100758.88;;;0.43;92.77
59767;BME280;46248;58.364;25.582;2023-04-28T02:58:17;100763.13;;;0.52;92.76
59767;BME280;46248;58.364;25.582;2023-04-28T03:01:39;100766.50;;;0.57;93.63
59767;BME280;46248;58.364;25.582;2023-04-28T03:05:01;100763.06;;;0.61;93.25
59767;BME280;46248;58.364;25.582;2023-04-28T03:08:24;100758.69;;;0.69;94.18
59767;BME280;46248;58.364;25.582;2023-04-28T03:11:46;100772.38;;;0.80;94.65
59767;BME280;46248;58.364;25.582;2023-04-28T03:15:08;100768.00;;;0.91;95.03
59767;BME280;46248;58.364;25.582;2023-04-28T03:18:33;100761.88;;;1.02;95.57
59767;BME280;46248;58.364;25.582;2023-04-28T03:21:55;100764.38;;;1.16;95.68
59767;BME280;46248;58.364;25.582;2023-04-28T03:25:18;100773.72;;;1.27;96.29
59767;BME280;46248;58.364;25.582;2023-04-28T03:28:40;100764.97;;;1.39;96.02
59767;BME280;46248;58.364;25.582;2023-04-28T03:32:03;100772.63;;;1.48;96.39
59767;BME280;46248;58.364;25.582;2023-04-28T03:35:24;100778.59;;;1.58;95.99
59767;BME280;46248;58.364;25.582;2023-04-28T03:38:47;100773.31;;;1.66;95.30
59767;BME280;46248;58.364;25.582;2023-04-28T03:42:10;100774.97;;;1.76;94.93
59767;BME280;46248;58.364;25.582;2023-04-28T03:45:32;100777.41;;;1.87;94.61
59767;BME280;46248;58.364;25.582;2023-04-28T03:48:54;100779.03;;;1.97;94.07
59767;BME280;46248;58.364;25.582;2023-04-28T03:52:16;100776.25;;;2.12;93.66
59767;BME280;46248;58.364;25.582;2023-04-28T03:55:38;100774.25;;;2.33;92.67
59767;BME280;46248;58.364;25.582;2023-04-28T03:59:01;100773.16;;;2.50;91.58
59767;BME280;46248;58.364;25.582;2023-04-28T04:02:23;100770.34;;;2.66;91.31
59767;BME280;46248;58.364;25.582;2023-04-28T04:05:45;100769.16;;;2.88;90.59
59767;BME280;46248;58.364;25.582;2023-04-28T04:09:08;100774.81;;;3.12;89.93
59767;BME280;46248;58.364;25.582;2023-04-28T04:12:30;100776.09;;;3.39;89.03
59767;BME280;46248;58.364;25.582;2023-04-28T04:15:53;100764.56;;;3.55;87.17
59767;BME280;46248;58.364;25.582;2023-04-28T04:19:15;100766.69;;;3.81;86.09
59767;BME280;46248;58.364;25.582;2023-04-28T04:22:37;100768.84;;;4.01;85.44
59767;BME280;46248;58.364;25.582;2023-04-28T04:25:58;100770.25;;;4.18;85.35
59767;BME280;46248;58.364;25.582;2023-04-28T04:29:20;100774.19;;;4.35;84.17
59767;BME280;46248;58.364;25.582;2023-04-28T04:32:43;100762.59;;;4.52;83.50
59767;BME280;46248;58.364;25.582;2023-04-28T04:36:06;100765.84;;;4.62;82.44
59767;BME280;46248;58.364;25.582;2023-04-28T04:39:28;100768.13;;;4.75;82.06
59767;BME280;46248;58.364;25.582;2023-04-28T04:42:50;100759.06;;;4.93;81.45
59767;BME280;46248;58.364;25.582;2023-04-28T04:46:12;100757.00;;;5.06;80.79
59767;BME280;46248;58.364;25.582;2023-04-28T04:49:35;100759.91;;;5.28;80.07
59767;BME280;46248;58.364;25.582;2023-04-28T04:52:58;100767.44;;;5.39;79.40
59767;BME280;46248;58.364;25.582;2023-04-28T04:56:20;100769.00;;;5.44;78.91
59767;BME280;46248;58.364;25.582;2023-04-28T04:59:41;100766.13;;;5.55;78.44
59767;BME280;46248;58.364;25.582;2023-04-28T05:03:04;100771.13;;;5.63;78.80
59767;BME280;46248;58.364;25.582;2023-04-28T05:06:29;100771.81;;;5.69;78.18
59767;BME280;46248;58.364;25.582;2023-04-28T05:09:51;100769.06;;;5.76;78.56
59767;BME280;46248;58.364;25.582;2023-04-28T05:13:13;100771.19;;;5.94;77.89
59767;BME280;46248;58.364;25.582;2023-04-28T05:16:34;100772.22;;;6.18;76.94
59767;BME280;46248;58.364;25.582;2023-04-28T05:19:56;100764.72;;;6.37;76.53
59767;BME280;46248;58.364;25.582;2023-04-28T05:23:19;100772.44;;;6.68;75.76
59767;BME280;46248;58.364;25.582;2023-04-28T05:26:41;100764.16;;;6.83;74.83
59767;BME280;46248;58.364;25.582;2023-04-28T05:30:04;100767.38;;;6.92;73.93
59767;BME280;46248;58.364;25.582;2023-04-28T05:33:26;100768.63;;;7.06;74.00
59767;BME280;46248;58.364;25.582;2023-04-28T05:36:48;100767.97;;;7.26;73.17
59767;BME280;46248;58.364;25.582;2023-04-28T05:40:11;100762.34;;;7.39;72.79
59767;BME280;46248;58.364;25.582;2023-04-28T05:43:33;100759.88;;;7.34;71.33
59767;BME280;46248;58.364;25.582;2023-04-28T05:46:55;100770.41;;;7.31;72.19
59767;BME280;46248;58.364;25.582;2023-04-28T05:50:17;100763.41;;;7.33;71.97
59767;BME280;46248;58.364;25.582;2023-04-28T05:53:39;100766.03;;;7.31;71.14
59767;BME280;46248;58.364;25.582;2023-04-28T05:57:02;100767.78;;;7.32;71.32
59767;BME280;46248;58.364;25.582;2023-04-28T06:00:24;100758.00;;;7.39;71.51
59767;BME280;46248;58.364;25.582;2023-04-28T06:03:46;100765.91;;;7.61;70.46
59767;BME280;46248;58.364;25.582;2023-04-28T06:07:09;100766.00;;;7.83;70.58
59767;BME280;46248;58.364;25.582;2023-04-28T06:10:31;100770.72;;;7.97;68.75
59767;BME280;46248;58.364;25.582;2023-04-28T06:13:54;100778.78;;;8.14;68.91
59767;BME280;46248;58.364;25.582;2023-04-28T06:17:17;100773.94;;;8.27;69.11
59767;BME280;46248;58.364;25.582;2023-04-28T06:20:38;100782.03;;;8.44;68.21
59767;BME280;46248;58.364;25.582;2023-04-28T06:24:00;100776.75;;;8.68;67.69
59767;BME280;46248;58.364;25.582;2023-04-28T06:27:23;100766.06;;;8.96;65.56
59767;BME280;46248;58.364;25.582;2023-04-28T06:30:47;100775.44;;;9.22;65.11
59767;BME280;46248;58.364;25.582;2023-04-28T06:34:10;100780.88;;;9.17;64.86
59767;BME280;46248;58.364;25.582;2023-04-28T06:37:32;100781.38;;;9.05;64.77
59767;BME280;46248;58.364;25.582;2023-04-28T06:40:53;100781.69;;;8.76;65.16
59767;BME280;46248;58.364;25.582;2023-04-28T06:44:15;100785.47;;;8.68;66.90
59767;BME280;46248;58.364;25.582;2023-04-28T06:47:39;100782.59;;;8.97;66.10
59767;BME280;46248;58.364;25.582;2023-04-28T06:51:02;100779.16;;;9.16;64.87
59767;BME280;46248;58.364;25.582;2023-04-28T06:54:24;100784.16;;;9.01;65.14
59767;BME280;46248;58.364;25.582;2023-04-28T06:57:46;100789.06;;;8.86;65.10
59767;BME280;46248;58.364;25.582;2023-04-28T07:01:08;100782.72;;;8.71;65.62
59767;BME280;46248;58.364;25.582;2023-04-28T07:04:31;100790.28;;;8.56;65.89
59767;BME280;46248;58.364;25.582;2023-04-28T07:07:53;100785.13;;;8.54;66.15
59767;BME280;46248;58.364;25.582;2023-04-28T07:11:15;100786.94;;;8.52;66.08
59767;BME280;46248;58.364;25.582;2023-04-28T07:14:37;100792.50;;;8.43;66.81
59767;BME280;46248;58.364;25.582;2023-04-28T07:17:59;100787.41;;;8.40;66.07
59767;BME280;46248;58.364;25.582;2023-04-28T07:21:22;100781.84;;;8.49;65.32
59767;BME280;46248;58.364;25.582;2023-04-28T07:24:44;100784.81;;;8.62;66.26
59767;BME280;46248;58.364;25.582;2023-04-28T07:28:06;100784.34;;;8.74;65.59
59767;BME280;46248;58.364;25.582;2023-04-28T07:31:28;100785.63;;;8.86;65.13
59767;BME280;46248;58.364;25.582;2023-04-28T07:34:50;100781.53;;;9.01;64.43
59767;BME280;46248;58.364;25.582;2023-04-28T07:38:14;100751.00;;;9.03;63.70
59767;BME280;46248;58.364;25.582;2023-04-28T07:41:37;100778.13;;;9.21;63.50
59767;BME280;46248;58.364;25.582;2023-04-28T07:44:59;100783.16;;;9.46;62.58
59767;BME280;46248;58.364;25.582;2023-04-28T07:48:21;100773.16;;;9.76;62.35
59767;BME280;46248;58.364;25.582;2023-04-28T07:51:43;100776.84;;;9.72;59.42
59767;BME280;46248;58.364;25.582;2023-04-28T07:55:07;100775.47;;;9.63;59.42
59767;BME280;46248;58.364;25.582;2023-04-28T07:58:30;100772.72;;;9.66;60.14
59767;BME280;46248;58.364;25.582;2023-04-28T08:01:52;100781.13;;;9.73;60.13
59767;BME280;46248;58.364;25.582;2023-04-28T08:05:14;100766.38;;;9.72;59.11
59767;BME280;46248;58.364;25.582;2023-04-28T08:08:36;100772.44;;;9.52;59.71
59767;BME280;46248;58.364;25.582;2023-04-28T08:12:00;100774.00;;;9.15;59.45
59767;BME280;46248;58.364;25.582;2023-04-28T08:15:22;100785.88;;;8.80;63.98
59767;BME280;46248;58.364;25.582;2023-04-28T08:18:43;100792.25;;;8.51;65.80
59767;BME280;46248;58.364;25.582;2023-04-28T08:22:06;100783.84;;;8.42;65.94
59767;BME280;46248;58.364;25.582;2023-04-28T08:25:28;100785.59;;;8.42;66.31
59767;BME280;46248;58.364;25.582;2023-04-28T08:28:52;100787.31;;;8.65;67.21
59767;BME280;46248;58.364;25.582;2023-04-28T08:32:14;100783.44;;;8.97;66.49
59767;BME280;46248;58.364;25.582;2023-04-28T08:35:36;100783.63;;;9.35;64.86
59767;BME280;46248;58.364;25.582;2023-04-28T08:38:59;100782.47;;;9.42;63.41
59767;BME280;46248;58.364;25.582;2023-04-28T08:42:23;100777.69;;;9.52;63.22
59767;BME280;46248;58.364;25.582;2023-04-28T08:45:46;100773.16;;;9.55;62.61
59767;BME280;46248;58.364;25.582;2023-04-28T08:49:13;100767.66;;;9.82;58.61
59767;BME280;46248;58.364;25.582;2023-04-28T08:52:35;100770.38;;;9.99;60.08
59767;BME280;46248;58.364;25.582;2023-04-28T08:55:58;100766.00;;;10.19;59.34
59767;BME280;46248;58.364;25.582;2023-04-28T08:59:20;100750.19;;;10.41;59.27
59767;BME280;46248;58.364;25.582;2023-04-28T09:02:44;100758.47;;;10.31;59.20
59767;BME280;46248;58.364;25.582;2023-04-28T09:06:06;100762.44;;;10.01;59.20
59767;BME280;46248;58.364;25.582;2023-04-28T09:09:30;100768.19;;;9.70;60.62
59767;BME280;46248;58.364;25.582;2023-04-28T09:13:01;100774.03;;;9.35;61.17
59767;BME280;46248;58.364;25.582;2023-04-28T09:16:38;100780.41;;;9.08;63.08
59767;BME280;46248;58.364;25.582;2023-04-28T09:20:07;100775.00;;;8.68;64.86
59767;BME280;46248;58.364;25.582;2023-04-28T09:23:46;100778.31;;;8.50;64.71
59767;BME280;46248;58.364;25.582;2023-04-28T09:27:10;100772.81;;;8.34;64.81
59767;BME280;46248;58.364;25.582;2023-04-28T09:30:37;100782.50;;;8.31;65.14
59767;BME280;46248;58.364;25.582;2023-04-28T09:34:00;100777.91;;;8.37;66.93
59767;BME280;46248;58.364;25.582;2023-04-28T09:37:25;100783.47;;;8.28;66.15
59767;BME280;46248;58.364;25.582;2023-04-28T09:40:56;100778.81;;;8.36;65.46
59767;BME280;46248;58.364;25.582;2023-04-28T09:44:18;100776.88;;;8.65;65.49
59767;BME280;46248;58.364;25.582;2023-04-28T09:47:42;100765.56;;;9.08;64.43
59767;BME280;46248;58.364;25.582;2023-04-28T09:51:06;100766.69;;;9.64;61.23
59767;BME280;46248;58.364;25.582;2023-04-28T09:54:33;100766.31;;;9.92;61.64
59767;BME280;46248;58.364;25.582;2023-04-28T09:57:56;100768.16;;;10.11;60.80
59767;BME280;46248;58.364;25.582;2023-04-28T10:01:23;100762.03;;;9.91;58.49
59767;BME280;46248;58.364;25.582;2023-04-28T10:04:46;100761.06;;;9.53;62.16
59767;BME280;46248;58.364;25.582;2023-04-28T10:08:09;100764.72;;;9.28;61.90
59767;BME280;46248;58.364;25.582;2023-04-28T10:11:33;100756.78;;;9.11;63.49
59767;BME280;46248;58.364;25.582;2023-04-28T10:14:55;100753.66;;;9.01;62.01
59767;BME280;46248;58.364;25.582;2023-04-28T10:18:20;100758.53;;;8.88;62.79
59767;BME280;46248;58.364;25.582;2023-04-28T10:21:50;100757.03;;;8.83;64.83
59767;BME280;46248;58.364;25.582;2023-04-28T10:25:24;100760.56;;;8.82;63.53
59767;BME280;46248;58.364;25.582;2023-04-28T10:28:49;100741.00;;;8.70;65.09
59767;BME280;46248;58.364;25.582;2023-04-28T10:32:16;100746.56;;;8.83;65.77
59767;BME280;46248;58.364;25.582;2023-04-28T10:35:43;100747.34;;;9.07;67.07
59767;BME280;46248;58.364;25.582;2023-04-28T10:39:09;100747.09;;;9.33;62.38
59767;BME280;46248;58.364;25.582;2023-04-28T10:42:50;100742.91;;;9.50;63.95
59767;BME280;46248;58.364;25.582;2023-04-28T10:46:14;100751.81;;;9.66;60.24
59767;BME280;46248;58.364;25.582;2023-04-28T10:50:03;100742.91;;;9.70;56.20
59767;BME280;46248;58.364;25.582;2023-04-28T10:57:21;100744.72;;;9.68;56.24
59767;BME280;46248;58.364;25.582;2023-04-28T11:00:43;100747.69;;;9.60;56.44
59767;BME280;46248;58.364;25.582;2023-04-28T11:04:10;100747.72;;;9.59;55.51
59767;BME280;46248;58.364;25.582;2023-04-28T11:07:34;100752.00;;;9.61;54.17
59767;BME280;46248;58.364;25.582;2023-04-28T11:11:22;100758.72;;;9.67;52.05
59767;BME280;46248;58.364;25.582;2023-04-28T11:14:45;100759.25;;;9.75;53.96
59767;BME280;46248;58.364;25.582;2023-04-28T11:18:10;100746.16;;;9.75;49.85
59767;BME280;46248;58.364;25.582;2023-04-28T11:21:38;100743.53;;;9.96;54.84
59767;BME280;46248;58.364;25.582;2023-04-28T11:25:01;100743.00;;;10.27;52.56
59767;BME280;46248;58.364;25.582;2023-04-28T11:28:23;100757.00;;;10.45;52.91
59767;BME280;46248;58.364;25.582;2023-04-28T11:31:48;100743.38;;;10.55;50.86
59767;BME280;46248;58.364;25.582;2023-04-28T11:35:11;100744.41;;;10.53;49.08
59767;BME280;46248;58.364;25.582;2023-04-28T11:38:43;100756.56;;;10.54;52.84
59767;BME280;46248;58.364;25.582;2023-04-28T11:42:09;100739.13;;;10.72;51.28
59767;BME280;46248;58.364;25.582;2023-04-28T11:45:31;100738.38;;;10.87;51.60
59767;BME280;46248;58.364;25.582;2023-04-28T11:49:00;100744.78;;;10.99;48.85
59767;BME280;46248;58.364;25.582;2023-04-28T11:52:24;100737.59;;;10.85;49.68
59767;BME280;46248;58.364;25.582;2023-04-28T11:55:48;100744.75;;;10.82;48.28
59767;BME280;46248;58.364;25.582;2023-04-28T11:59:11;100746.72;;;10.59;48.66
59767;BME280;46248;58.364;25.582;2023-04-28T12:02:34;100753.38;;;10.47;49.92
59767;BME280;46248;58.364;25.582;2023-04-28T12:05:56;100749.34;;;10.40;48.46
59767;BME280;46248;58.364;25.582;2023-04-28T12:09:18;100753.88;;;10.37;50.42
59767;BME280;46248;58.364;25.582;2023-04-28T12:12:46;100753.53;;;10.44;52.11
59767;BME280;46248;58.364;25.582;2023-04-28T12:16:12;100750.47;;;10.53;52.46
59767;BME280;46248;58.364;25.582;2023-04-28T12:19:42;100732.47;;;10.65;52.60
59767;BME280;46248;58.364;25.582;2023-04-28T12:23:06;100748.19;;;10.65;50.82
59767;BME280;46248;58.364;25.582;2023-04-28T12:26:29;100752.16;;;10.54;52.07
59767;BME280;46248;58.364;25.582;2023-04-28T12:29:52;100750.47;;;10.53;52.88
59767;BME280;46248;58.364;25.582;2023-04-28T12:33:22;100752.66;;;10.44;53.70
59767;BME280;46248;58.364;25.582;2023-04-28T12:36:45;100745.31;;;10.33;54.53
59767;BME280;46248;58.364;25.582;2023-04-28T12:40:08;100733.63;;;10.21;54.95
59767;BME280;46248;58.364;25.582;2023-04-28T12:43:30;100739.84;;;10.19;54.64
59767;BME280;46248;58.364;25.582;2023-04-28T12:46:54;100736.84;;;10.47;55.51
59767;BME280;46248;58.364;25.582;2023-04-28T12:50:16;100728.50;;;10.75;51.70
59767;BME280;46248;58.364;25.582;2023-04-28T12:53:38;100727.19;;;11.01;50.89
59767;BME280;46248;58.364;25.582;2023-04-28T12:57:00;100722.66;;;11.22;50.17
59767;BME280;46248;58.364;25.582;2023-04-28T13:00:23;100724.34;;;11.40;47.99
59767;BME280;46248;58.364;25.582;2023-04-28T13:03:46;100727.28;;;11.34;43.11
59767;BME280;46248;58.364;25.582;2023-04-28T13:07:11;100723.66;;;11.19;43.41
59767;BME280;46248;58.364;25.582;2023-04-28T13:10:33;100722.50;;;11.25;42.99
59767;BME280;46248;58.364;25.582;2023-04-28T13:13:55;100727.31;;;11.17;43.69
59767;BME280;46248;58.364;25.582;2023-04-28T13:17:17;100717.19;;;11.27;43.92
59767;BME280;46248;58.364;25.582;2023-04-28T13:20:40;100712.88;;;11.08;43.02
59767;BME280;46248;58.364;25.582;2023-04-28T13:24:03;100726.16;;;11.05;44.15
59767;BME280;46248;58.364;25.582;2023-04-28T13:27:25;100727.13;;;10.85;43.45
59767;BME280;46248;58.364;25.582;2023-04-28T13:30:50;100727.81;;;10.71;44.76
59767;BME280;46248;58.364;25.582;2023-04-28T13:34:12;100731.25;;;10.72;43.50
59767;BME280;46248;58.364;25.582;2023-04-28T13:37:36;100731.41;;;10.69;44.62
59767;BME280;46248;58.364;25.582;2023-04-28T13:41:05;100725.03;;;10.74;43.81
59767;BME280;46248;58.364;25.582;2023-04-28T13:44:27;100732.59;;;10.81;43.04
59767;BME280;46248;58.364;25.582;2023-04-28T13:47:49;100729.34;;;10.75;43.42
59767;BME280;46248;58.364;25.582;2023-04-28T13:51:11;100737.06;;;10.78;41.74
59767;BME280;46248;58.364;25.582;2023-04-28T13:54:34;100732.81;;;10.76;43.28
59767;BME280;46248;58.364;25.582;2023-04-28T13:57:56;100739.03;;;10.73;42.78
59767;BME280;46248;58.364;25.582;2023-04-28T14:01:22;100741.41;;;10.61;42.28
59767;BME280;46248;58.364;25.582;2023-04-28T14:04:44;100739.84;;;10.57;43.83
59767;BME280;46248;58.364;25.582;2023-04-28T14:08:08;100735.22;;;10.62;43.23
59767;BME280;46248;58.364;25.582;2023-04-28T14:11:32;100727.63;;;10.57;44.53
59767;BME280;46248;58.364;25.582;2023-04-28T14:14:54;100735.63;;;10.54;44.25
59767;BME280;46248;58.364;25.582;2023-04-28T14:18:16;100740.22;;;10.49;43.69
59767;BME280;46248;58.364;25.582;2023-04-28T14:21:38;100739.66;;;10.42;44.53
59767;BME280;46248;58.364;25.582;2023-04-28T14:25:00;100734.91;;;10.50;44.73
59767;BME280;46248;58.364;25.582;2023-04-28T14:28:24;100739.84;;;10.57;42.83
59767;BME280;46248;58.364;25.582;2023-04-28T14:31:46;100738.63;;;10.64;43.48
59767;BME280;46248;58.364;25.582;2023-04-28T14:35:09;100738.56;;;10.65;42.20
59767;BME280;46248;58.364;25.582;2023-04-28T14:38:31;100745.00;;;10.58;43.14
59767;BME280;46248;58.364;25.582;2023-04-28T14:41:53;100734.78;;;10.53;40.96
59767;BME280;46248;58.364;25.582;2023-04-28T14:45:17;100731.72;;;10.44;41.87
59767;BME280;46248;58.364;25.582;2023-04-28T14:48:39;100736.94;;;10.44;40.95
59767;BME280;46248;58.364;25.582;2023-04-28T14:52:00;100740.50;;;10.43;41.01
59767;BME280;46248;58.364;25.582;2023-04-28T14:55:23;100749.00;;;10.29;40.69
59767;BME280;46248;58.364;25.582;2023-04-28T14:58:44;100752.88;;;10.20;41.00
59767;BME280;46248;58.364;25.582;2023-04-28T15:02:08;100742.41;;;10.20;42.81
59767;BME280;46248;58.364;25.582;2023-04-28T15:05:29;100737.91;;;10.22;42.27
59767;BME280;46248;58.364;25.582;2023-04-28T15:08:51;100739.53;;;10.26;42.26
59767;BME280;46248;58.364;25.582;2023-04-28T15:12:13;100743.28;;;10.19;41.53
59767;BME280;46248;58.364;25.582;2023-04-28T15:15:35;100754.78;;;10.17;41.33
59767;BME280;46248;58.364;25.582;2023-04-28T15:18:59;100742.31;;;10.03;42.79
59767;BME280;46248;58.364;25.582;2023-04-28T15:22:21;100744.84;;;10.04;42.77
59767;BME280;46248;58.364;25.582;2023-04-28T15:25:42;100757.31;;;9.99;43.16
59767;BME280;46248;58.364;25.582;2023-04-28T15:29:04;100728.69;;;9.76;43.61
59767;BME280;46248;58.364;25.582;2023-04-28T15:32:26;100743.19;;;9.83;43.22
59767;BME280;46248;58.364;25.582;2023-04-28T15:35:52;100748.84;;;9.74;42.76
59767;BME280;46248;58.364;25.582;2023-04-28T15:39:16;100752.69;;;9.65;43.71
59767;BME280;46248;58.364;25.582;2023-04-28T15:42:38;100755.44;;;9.62;43.43
59767;BME280;46248;58.364;25.582;2023-04-28T15:46:03;100752.34;;;9.54;43.36
59767;BME280;46248;58.364;25.582;2023-04-28T15:49:28;100758.00;;;9.43;44.16
59767;BME280;46248;58.364;25.582;2023-04-28T15:52:51;100758.13;;;9.40;43.94
59767;BME280;46248;58.364;25.582;2023-04-28T15:56:13;100764.69;;;9.30;42.63
59767;BME280;46248;58.364;25.582;2023-04-28T15:59:39;100762.59;;;9.17;43.27
59767;BME280;46248;58.364;25.582;2023-04-28T16:03:01;100764.09;;;9.23;43.70
59767;BME280;46248;58.364;25.582;2023-04-28T16:06:23;100751.91;;;9.22;43.69
59767;BME280;46248;58.364;25.582;2023-04-28T16:09:47;100755.59;;;9.38;43.37
59767;BME280;46248;58.364;25.582;2023-04-28T16:13:09;100764.06;;;9.84;44.31
59767;BME280;46248;58.364;25.582;2023-04-28T16:16:31;100754.00;;;10.15;44.35
59767;BME280;46248;58.364;25.582;2023-04-28T16:19:53;100754.78;;;10.54;42.91
59767;BME280;46248;58.364;25.582;2023-04-28T16:23:15;100753.56;;;10.81;41.99
59767;BME280;46248;58.364;25.582;2023-04-28T16:26:41;100755.97;;;11.03;41.46
59767;BME280;46248;58.364;25.582;2023-04-28T16:30:03;100758.81;;;11.15;42.29
59767;BME280;46248;58.364;25.582;2023-04-28T16:33:26;100758.81;;;11.15;42.47
59767;BME280;46248;58.364;25.582;2023-04-28T16:36:48;100764.88;;;10.81;42.54
59767;BME280;46248;58.364;25.582;2023-04-28T16:40:11;100751.63;;;10.48;42.97
59767;BME280;46248;58.364;25.582;2023-04-28T16:43:35;100752.91;;;10.19;42.54
59767;BME280;46248;58.364;25.582;2023-04-28T16:46:58;100764.88;;;10.05;43.63
59767;BME280;46248;58.364;25.582;2023-04-28T16:50:19;100763.28;;;9.82;44.63
59767;BME280;46248;58.364;25.582;2023-04-28T16:53:42;100758.41;;;9.54;45.03
59767;BME280;46248;58.364;25.582;2023-04-28T16:57:03;100755.88;;;9.32;45.21
59767;BME280;46248;58.364;25.582;2023-04-28T17:00:27;100761.78;;;9.15;45.99
59767;BME280;46248;58.364;25.582;2023-04-28T17:03:49;100768.09;;;9.10;46.67
59767;BME280;46248;58.364;25.582;2023-04-28T17:07:11;100759.13;;;9.17;46.97
59767;BME280;46248;58.364;25.582;2023-04-28T17:10:35;100757.09;;;9.24;46.82
59767;BME280;46248;58.364;25.582;2023-04-28T17:13:57;100757.25;;;9.41;47.37
59767;BME280;46248;58.364;25.582;2023-04-28T17:17:20;100759.34;;;9.53;47.27
59767;BME280;46248;58.364;25.582;2023-04-28T17:20:43;100764.69;;;9.30;47.84
59767;BME280;46248;58.364;25.582;2023-04-28T17:24:05;100766.97;;;8.95;47.83
59767;BME280;46248;58.364;25.582;2023-04-28T17:27:27;100765.69;;;8.61;49.11
59767;BME280;46248;58.364;25.582;2023-04-28T17:30:50;100768.19;;;8.42;49.95
59767;BME280;46248;58.364;25.582;2023-04-28T17:34:13;100772.38;;;8.23;50.60
59767;BME280;46248;58.364;25.582;2023-04-28T17:37:35;100759.66;;;7.90;51.08
59767;BME280;46248;58.364;25.582;2023-04-28T17:40:57;100760.59;;;7.64;52.19
59767;BME280;46248;58.364;25.582;2023-04-28T17:44:19;100770.91;;;7.42;53.06